createdAt,value
2023-01-29T00:02:07.082Z,-2.60
2023-01-29T00:04:58.739Z,-1.70
2023-01-29T00:07:47.431Z,-2.60
2023-01-29T00:10:34.863Z,-2.70
2023-01-29T00:13:23.117Z,-2.70
2023-01-29T00:16:11.028Z,-2.80
2023-01-29T00:19:01.970Z,-2.10
2023-01-29T00:21:48.909Z,-2.80
2023-01-29T00:24:37.023Z,-2.90
2023-01-29T00:27:24.983Z,-2.70
2023-01-29T00:30:13.341Z,-2.70
2023-01-29T00:33:01.006Z,-1.70
2023-01-29T00:35:50.515Z,-2.80
2023-01-29T00:38:38.271Z,-2.90
2023-01-29T00:41:45.443Z,-2.90
2023-01-29T00:44:50.375Z,-2.90
2023-01-29T00:47:38.284Z,-2.90
2023-01-29T00:50:25.745Z,-2.90
2023-01-29T00:53:15.036Z,-2.90
2023-01-29T00:56:02.152Z,-3.00
2023-01-29T00:58:49.763Z,-2.30
2023-01-29T01:01:54.605Z,-2.50
2023-01-29T01:04:42.267Z,-2.90
2023-01-29T01:07:29.997Z,-3.00
2023-01-29T01:10:21.950Z,-2.90
2023-01-29T01:13:09.445Z,-2.90
2023-01-29T01:15:57.050Z,-2.40
2023-01-29T01:18:44.563Z,-3.00
2023-01-29T01:21:32.047Z,-3.00
2023-01-29T01:24:20.527Z,-3.00
2023-01-29T01:27:09.598Z,-3.00
2023-01-29T01:29:56.798Z,-3.00
2023-01-29T01:32:44.234Z,-3.10
2023-01-29T01:35:32.278Z,-2.80
2023-01-29T01:38:20.012Z,-3.10
2023-01-29T01:41:07.670Z,-2.70
2023-01-29T01:43:58.397Z,-3.00
2023-01-29T01:46:46.023Z,-3.00
2023-01-29T01:49:35.987Z,-3.00
2023-01-29T01:52:23.614Z,-3.10
2023-01-29T01:55:12.149Z,-3.60
2023-01-29T01:58:05.801Z,-3.00
2023-01-29T02:00:54.832Z,-3.00
2023-01-29T02:04:01.574Z,-1.50
2023-01-29T02:07:07.489Z,-3.00
2023-01-29T02:09:57.781Z,-3.50
2023-01-29T02:12:46.659Z,-3.10
2023-01-29T02:15:36.294Z,-3.00
2023-01-29T02:18:25.150Z,-2.30
2023-01-29T02:21:25.476Z,-3.10
2023-01-29T02:24:32.856Z,-3.10
2023-01-29T02:27:22.307Z,-3.00
2023-01-29T02:30:15.144Z,-3.10
2023-01-29T02:33:09.473Z,-3.60
2023-01-29T02:35:59.909Z,-3.10
2023-01-29T02:38:52.128Z,-3.10
2023-01-29T02:41:43.039Z,-3.00
2023-01-29T02:44:35.243Z,-3.00
2023-01-29T02:47:25.667Z,-3.00
2023-01-29T02:50:16.549Z,-3.00
2023-01-29T02:53:07.634Z,-2.90
2023-01-29T02:55:59.143Z,-3.00
2023-01-29T02:58:47.530Z,-3.10
2023-01-29T03:01:36.550Z,-3.20
2023-01-29T03:04:27.261Z,-3.20
2023-01-29T03:07:37.704Z,-3.20
2023-01-29T03:10:26.478Z,-3.20
2023-01-29T03:13:18.588Z,-3.10
2023-01-29T03:16:08.076Z,-3.10
2023-01-29T03:19:07.382Z,-3.10
2023-01-29T03:22:00.406Z,-3.20
2023-01-29T03:25:09.137Z,-4.50
2023-01-29T03:28:17.121Z,-3.30
2023-01-29T03:31:24.904Z,-3.30
2023-01-29T03:34:24.331Z,-3.30
2023-01-29T03:37:18.910Z,-3.40
2023-01-29T03:40:08.182Z,-3.50
2023-01-29T03:43:01.062Z,-3.70
2023-01-29T03:45:53.295Z,-3.60
2023-01-29T03:48:41.692Z,-3.70
2023-01-29T03:51:31.424Z,-3.60
2023-01-29T03:54:26.540Z,-3.60
2023-01-29T03:57:18.340Z,-2.70
2023-01-29T04:00:09.736Z,-3.00
2023-01-29T04:03:20.916Z,-3.40
2023-01-29T04:06:10.985Z,-3.40
2023-01-29T04:09:25.041Z,-3.40
2023-01-29T04:12:13.245Z,-3.40
2023-01-29T04:15:03.515Z,-3.40
2023-01-29T04:17:52.804Z,-3.40
2023-01-29T04:20:50.741Z,-3.40
2023-01-29T04:23:38.182Z,-3.40
2023-01-29T04:26:43.844Z,-3.30
2023-01-29T04:29:38.214Z,-3.30
2023-01-29T04:32:30.348Z,-3.20
2023-01-29T04:35:24.349Z,-3.20
2023-01-29T04:38:13.926Z,-3.20
2023-01-29T04:41:05.001Z,-3.20
2023-01-29T04:43:59.761Z,-3.20
2023-01-29T04:46:49.084Z,-3.10
2023-01-29T04:49:39.690Z,-3.10
2023-01-29T04:52:33.741Z,-3.10
2023-01-29T04:55:26.887Z,-3.10
2023-01-29T04:58:18.638Z,-3.00
2023-01-29T05:01:09.124Z,-1.80
2023-01-29T05:03:58.716Z,-2.90
2023-01-29T05:06:47.406Z,-2.80
2023-01-29T05:09:35.828Z,-2.70
2023-01-29T05:12:26.506Z,-2.70
2023-01-29T05:15:15.708Z,-2.60
2023-01-29T05:18:08.941Z,-2.60
2023-01-29T05:20:57.911Z,-2.50
2023-01-29T05:23:59.492Z,-2.50
2023-01-29T05:27:06.513Z,-2.40
2023-01-29T05:29:55.605Z,-2.50
2023-01-29T05:32:43.345Z,-2.30
2023-01-29T05:35:32.109Z,-2.40
2023-01-29T05:38:20.430Z,-2.30
2023-01-29T05:41:08.397Z,-2.30
2023-01-29T05:43:56.026Z,-2.40
2023-01-29T05:46:44.003Z,-3.90
2023-01-29T05:49:31.524Z,-2.40
2023-01-29T05:52:21.339Z,-2.40
2023-01-29T05:55:09.505Z,-2.40
2023-01-29T05:57:57.526Z,-2.20
2023-01-29T06:00:44.664Z,-2.40
2023-01-29T06:03:34.668Z,-2.20
2023-01-29T06:06:22.588Z,-2.20
2023-01-29T06:09:12.931Z,-2.60
2023-01-29T06:12:00.427Z,-2.80
2023-01-29T06:14:48.493Z,-2.10
2023-01-29T06:17:36.035Z,-2.00
2023-01-29T06:20:23.506Z,-1.90
2023-01-29T06:23:11.633Z,-1.90
2023-01-29T06:26:02.465Z,-1.90
2023-01-29T06:28:50.481Z,-1.80
2023-01-29T06:31:39.233Z,-1.80
2023-01-29T06:34:27.593Z,-1.60
2023-01-29T06:37:15.363Z,-1.00
2023-01-29T06:40:02.942Z,-1.70
2023-01-29T06:42:52.011Z,-1.70
2023-01-29T06:45:39.251Z,-1.60
2023-01-29T06:48:27.487Z,-1.70
2023-01-29T06:51:15.620Z,-1.60
2023-01-29T06:54:03.262Z,-1.60
2023-01-29T06:56:50.659Z,-1.50
2023-01-29T06:59:39.450Z,-1.50
2023-01-29T07:02:30.576Z,-1.30
2023-01-29T07:05:18.126Z,-1.20
2023-01-29T07:08:05.993Z,-1.20
2023-01-29T07:10:53.349Z,-1.20
2023-01-29T07:13:40.755Z,-1.20
2023-01-29T07:16:29.794Z,-1.50
2023-01-29T07:19:17.452Z,-1.70
2023-01-29T07:22:05.800Z,-1.70
2023-01-29T07:24:53.254Z,-1.50
2023-01-29T07:27:41.269Z,-1.80
2023-01-29T07:30:29.248Z,-1.00
2023-01-29T07:33:18.247Z,-2.40
2023-01-29T07:36:08.528Z,-1.60
2023-01-29T07:38:56.158Z,-1.60
2023-01-29T07:41:43.648Z,-1.70
2023-01-29T07:44:36.468Z,-1.60
2023-01-29T07:47:24.622Z,-1.50
2023-01-29T07:50:13.892Z,-1.40
2023-01-29T07:53:02.080Z,-1.40
2023-01-29T07:55:50.082Z,-1.50
2023-01-29T07:58:38.074Z,-1.30
2023-01-29T08:01:25.656Z,-1.10
2023-01-29T08:04:12.899Z,-1.20
2023-01-29T08:07:04.750Z,-1.20
2023-01-29T08:09:52.556Z,-1.20
2023-01-29T08:12:40.031Z,-1.10
2023-01-29T08:15:27.929Z,-2.10
2023-01-29T08:18:15.633Z,-1.00
2023-01-29T08:21:03.528Z,-1.00
2023-01-29T08:23:52.865Z,-0.80
2023-01-29T08:26:40.517Z,-0.90
2023-01-29T08:29:27.910Z,-1.30
2023-01-29T08:32:15.412Z,-0.40
2023-01-29T08:35:02.990Z,-0.70
2023-01-29T08:37:54.295Z,-0.70
2023-01-29T08:40:43.222Z,-0.60
2023-01-29T08:43:30.499Z,-0.60
2023-01-29T08:46:18.558Z,-0.50
2023-01-29T08:49:05.674Z,-2.90
2023-01-29T08:51:54.010Z,-0.40
2023-01-29T08:54:41.303Z,-0.30
2023-01-29T08:57:31.004Z,-0.20
2023-01-29T09:00:18.766Z,-0.10
2023-01-29T09:03:08.035Z,-0.10
2023-01-29T09:05:55.642Z,0.00
2023-01-29T09:08:43.189Z,0.00
2023-01-29T09:11:30.998Z,0.10
2023-01-29T09:14:20.951Z,0.20
2023-01-29T09:17:08.470Z,0.30
2023-01-29T09:19:56.161Z,0.30
2023-01-29T09:22:43.654Z,0.40
2023-01-29T09:25:31.299Z,0.50
2023-01-29T09:28:19.267Z,2.90
2023-01-29T09:31:08.029Z,0.70
2023-01-29T09:33:55.315Z,0.70
2023-01-29T09:36:43.054Z,0.70
2023-01-29T09:39:30.432Z,0.70
2023-01-29T09:42:21.754Z,0.70
2023-01-29T09:45:13.548Z,0.80
2023-01-29T09:48:05.810Z,0.80
2023-01-29T09:50:55.241Z,0.80
2023-01-29T09:53:47.479Z,0.80
2023-01-29T09:56:36.587Z,0.90
2023-01-29T09:59:25.378Z,0.90
2023-01-29T10:02:30.790Z,1.00
2023-01-29T10:05:27.197Z,1.00
2023-01-29T10:08:29.464Z,1.00
2023-01-29T10:11:22.937Z,-0.20
2023-01-29T10:14:15.769Z,1.00
2023-01-29T10:17:07.968Z,1.30
2023-01-29T10:20:00.366Z,1.20
2023-01-29T10:23:03.438Z,1.20
2023-01-29T10:25:53.069Z,1.20
2023-01-29T10:28:46.319Z,1.40
2023-01-29T10:31:38.685Z,1.40
2023-01-29T10:34:29.328Z,1.40
2023-01-29T10:37:18.861Z,1.40
2023-01-29T10:40:17.919Z,1.40
2023-01-29T10:43:09.024Z,4.20
2023-01-29T10:46:02.372Z,1.60
2023-01-29T10:48:56.387Z,1.60
2023-01-29T10:51:56.057Z,1.60
2023-01-29T10:54:50.470Z,1.70
2023-01-29T10:57:43.648Z,1.60
2023-01-29T11:00:38.542Z,1.70
2023-01-29T11:03:28.844Z,1.80
2023-01-29T11:06:18.973Z,1.80
2023-01-29T11:09:10.396Z,1.80
2023-01-29T11:11:59.620Z,1.80
2023-01-29T11:14:51.871Z,1.90
2023-01-29T11:17:41.773Z,2.00
2023-01-29T11:20:31.092Z,2.00
2023-01-29T11:23:26.343Z,1.90
2023-01-29T11:26:15.270Z,2.10
2023-01-29T11:29:03.747Z,2.30
2023-01-29T11:31:52.324Z,2.20
2023-01-29T11:34:55.245Z,2.20
2023-01-29T11:37:45.970Z,2.40
2023-01-29T11:40:38.620Z,2.30
2023-01-29T11:43:35.796Z,2.40
2023-01-29T11:46:23.440Z,2.90
2023-01-29T11:49:20.850Z,2.40
2023-01-29T11:52:10.838Z,2.50
2023-01-29T11:55:02.383Z,2.50
2023-01-29T11:57:51.214Z,2.30
2023-01-29T12:00:41.020Z,2.70
2023-01-29T12:03:32.322Z,0.50
2023-01-29T12:06:21.509Z,2.80
2023-01-29T12:09:11.682Z,2.80
2023-01-29T12:12:17.571Z,2.80
2023-01-29T12:15:26.295Z,2.80
2023-01-29T12:18:17.793Z,3.20
2023-01-29T12:21:07.137Z,3.20
2023-01-29T12:23:58.709Z,3.10
2023-01-29T12:26:49.278Z,3.10
2023-01-29T12:29:45.846Z,3.30
2023-01-29T12:32:38.274Z,3.20
2023-01-29T12:35:27.614Z,3.30
2023-01-29T12:38:19.261Z,3.20
2023-01-29T12:41:09.855Z,3.30
2023-01-29T12:43:59.310Z,3.30
2023-01-29T12:46:53.032Z,3.40
2023-01-29T12:49:41.053Z,3.40
2023-01-29T12:52:35.387Z,3.90
2023-01-29T12:55:23.892Z,3.60
2023-01-29T12:58:14.055Z,3.50
2023-01-29T13:01:04.512Z,3.50
2023-01-29T13:03:57.018Z,3.50
2023-01-29T13:06:46.783Z,3.30
2023-01-29T13:09:35.171Z,3.60
2023-01-29T13:12:24.251Z,5.90
2023-01-29T13:15:17.170Z,5.30
2023-01-29T13:18:22.193Z,3.70
2023-01-29T13:21:14.878Z,3.70
2023-01-29T13:24:04.260Z,5.10
2023-01-29T13:26:52.245Z,3.70
2023-01-29T13:29:40.385Z,5.40
2023-01-29T13:32:28.860Z,3.90
2023-01-29T13:35:17.644Z,3.70
2023-01-29T13:38:07.611Z,4.10
2023-01-29T13:40:57.876Z,3.90
2023-01-29T13:43:50.734Z,3.90
2023-01-29T13:46:41.508Z,3.80
2023-01-29T13:49:35.383Z,3.90
2023-01-29T13:52:37.028Z,4.60
2023-01-29T13:55:31.403Z,4.00
2023-01-29T13:58:26.277Z,4.00
2023-01-29T14:01:13.874Z,4.20
2023-01-29T14:04:18.734Z,3.80
2023-01-29T14:07:27.799Z,5.30
2023-01-29T14:10:17.270Z,3.90
2023-01-29T14:13:34.953Z,3.70
2023-01-29T14:16:35.032Z,3.70
2023-01-29T14:19:23.297Z,3.60
2023-01-29T14:22:20.397Z,3.70
2023-01-29T14:25:08.448Z,3.70
2023-01-29T14:27:56.604Z,3.60
2023-01-29T14:30:48.083Z,3.60
2023-01-29T14:33:43.456Z,3.60
2023-01-29T14:36:40.155Z,3.60
2023-01-29T14:39:35.093Z,3.60
2023-01-29T14:42:24.850Z,3.50
2023-01-29T14:45:23.891Z,3.50
2023-01-29T14:48:25.853Z,3.50
2023-01-29T14:51:18.519Z,3.50
2023-01-29T14:54:09.995Z,3.50
2023-01-29T14:57:00.009Z,3.50
2023-01-29T14:59:50.889Z,3.50
2023-01-29T15:02:39.805Z,3.40
2023-01-29T15:05:29.619Z,3.40
2023-01-29T15:08:23.921Z,3.40
2023-01-29T15:11:33.023Z,3.30
2023-01-29T15:14:28.219Z,5.30
2023-01-29T15:17:19.602Z,3.40
2023-01-29T15:20:27.129Z,3.40
2023-01-29T15:23:29.497Z,3.30
2023-01-29T15:26:20.314Z,3.30
2023-01-29T15:29:07.869Z,3.30
2023-01-29T15:32:04.029Z,3.30
2023-01-29T15:34:52.045Z,3.40
2023-01-29T15:37:41.407Z,3.20
2023-01-29T15:40:30.622Z,3.30
2023-01-29T15:43:23.761Z,3.30
2023-01-29T15:46:13.393Z,2.80
2023-01-29T15:49:03.059Z,3.10
2023-01-29T15:51:57.250Z,2.10
2023-01-29T15:54:44.907Z,3.10
2023-01-29T15:57:37.528Z,3.20
2023-01-29T16:00:27.407Z,5.50
2023-01-29T16:03:15.094Z,3.10
2023-01-29T16:06:03.349Z,3.10
2023-01-29T16:09:01.607Z,3.00
2023-01-29T16:11:50.667Z,2.90
2023-01-29T16:14:42.830Z,3.10
2023-01-29T16:17:35.329Z,2.20
2023-01-29T16:20:32.556Z,3.60
2023-01-29T16:23:21.720Z,3.20
2023-01-29T16:26:10.829Z,3.30
2023-01-29T16:28:58.696Z,3.40
2023-01-29T16:31:48.567Z,3.30
2023-01-29T16:34:37.866Z,3.30
2023-01-29T16:37:27.275Z,3.40
2023-01-29T16:40:16.995Z,3.40
2023-01-29T16:43:28.426Z,3.20
2023-01-29T16:46:27.165Z,3.60
2023-01-29T16:49:48.015Z,3.20
2023-01-29T16:52:38.236Z,3.10
2023-01-29T16:55:26.784Z,3.40
2023-01-29T16:58:17.285Z,3.10
2023-01-29T17:01:09.364Z,3.10
2023-01-29T17:04:07.719Z,3.10
2023-01-29T17:06:57.341Z,3.00
2023-01-29T17:09:46.367Z,3.00
2023-01-29T17:12:38.866Z,3.00
2023-01-29T17:15:34.799Z,2.90
2023-01-29T17:18:23.228Z,2.00
2023-01-29T17:21:11.085Z,2.90
2023-01-29T17:23:59.082Z,4.20
2023-01-29T17:26:47.866Z,3.20
2023-01-29T17:29:35.313Z,2.90
2023-01-29T17:32:22.708Z,2.90
2023-01-29T17:35:15.747Z,3.00
2023-01-29T17:38:05.036Z,2.80
2023-01-29T17:40:57.571Z,2.80
2023-01-29T17:43:47.237Z,2.90
2023-01-29T17:46:36.950Z,2.80
2023-01-29T17:49:26.582Z,2.90
2023-01-29T17:52:14.982Z,2.90
2023-01-29T17:55:02.950Z,2.90
2023-01-29T17:57:51.030Z,2.90
2023-01-29T18:00:40.036Z,2.90
2023-01-29T18:03:31.128Z,5.20
2023-01-29T18:06:21.511Z,3.00
2023-01-29T18:09:09.844Z,2.80
2023-01-29T18:11:58.561Z,2.80
2023-01-29T18:14:49.244Z,3.20
2023-01-29T18:17:39.906Z,3.90
2023-01-29T18:20:28.113Z,2.80
2023-01-29T18:23:16.910Z,2.90
2023-01-29T18:26:04.499Z,3.70
2023-01-29T18:28:51.952Z,2.90
2023-01-29T18:31:40.392Z,3.00
2023-01-29T18:34:29.399Z,3.00
2023-01-29T18:37:16.689Z,2.90
2023-01-29T18:40:06.559Z,2.90
2023-01-29T18:42:53.910Z,2.90
2023-01-29T18:45:42.121Z,2.80
2023-01-29T18:48:31.302Z,2.80
2023-01-29T18:51:20.130Z,2.80
2023-01-29T18:54:08.656Z,2.80
2023-01-29T18:57:08.624Z,2.80
2023-01-29T19:00:03.090Z,3.70
2023-01-29T19:02:53.428Z,2.80
2023-01-29T19:05:43.961Z,2.90
2023-01-29T19:08:35.980Z,2.90
2023-01-29T19:11:23.918Z,4.50
2023-01-29T19:14:12.323Z,3.30
2023-01-29T19:17:01.738Z,2.70
2023-01-29T19:19:49.647Z,2.80
2023-01-29T19:22:37.542Z,2.80
2023-01-29T19:25:27.402Z,2.80
2023-01-29T19:28:15.503Z,2.80
2023-01-29T19:31:03.683Z,2.80
2023-01-29T19:33:51.751Z,3.10
2023-01-29T19:36:39.330Z,2.90
2023-01-29T19:39:29.884Z,2.90
2023-01-29T19:42:20.546Z,2.90
2023-01-29T19:45:09.022Z,2.90
2023-01-29T19:47:59.182Z,2.80
2023-01-29T19:50:59.671Z,2.70
2023-01-29T19:53:47.752Z,2.70
2023-01-29T19:56:35.823Z,2.60
2023-01-29T19:59:25.855Z,2.60
2023-01-29T20:02:13.694Z,2.60
2023-01-29T20:05:05.635Z,2.60
2023-01-29T20:07:59.905Z,3.30
2023-01-29T20:10:54.051Z,3.50
2023-01-29T20:13:41.899Z,2.50
2023-01-29T20:16:31.432Z,5.70
2023-01-29T20:19:20.815Z,2.50
2023-01-29T20:22:09.011Z,2.70
2023-01-29T20:24:59.970Z,2.60
2023-01-29T20:27:49.808Z,2.70
2023-01-29T20:30:38.721Z,4.40
2023-01-29T20:33:30.838Z,2.50
2023-01-29T20:36:19.244Z,2.60
2023-01-29T20:39:07.683Z,2.50
2023-01-29T20:41:58.258Z,5.60
2023-01-29T20:44:48.809Z,5.10
2023-01-29T20:47:36.606Z,5.40
2023-01-29T20:50:25.486Z,1.90
2023-01-29T20:53:16.522Z,2.60
2023-01-29T20:56:05.299Z,2.80
2023-01-29T20:58:59.859Z,3.00
2023-01-29T21:01:47.573Z,2.70
2023-01-29T21:04:35.457Z,2.80
2023-01-29T21:07:24.681Z,2.90
2023-01-29T21:10:19.024Z,3.00
2023-01-29T21:13:07.021Z,2.90
2023-01-29T21:15:59.005Z,3.20
2023-01-29T21:18:46.117Z,3.20
2023-01-29T21:21:34.811Z,3.00
2023-01-29T21:24:29.021Z,3.10
2023-01-29T21:27:16.638Z,5.10
2023-01-29T21:30:04.725Z,3.50
2023-01-29T21:32:52.372Z,3.20
2023-01-29T21:35:43.696Z,3.20
2023-01-29T21:38:31.971Z,3.20
2023-01-29T21:41:44.269Z,4.20
2023-01-29T21:44:33.532Z,3.20
2023-01-29T21:47:23.456Z,3.50
2023-01-29T21:50:12.212Z,3.40
2023-01-29T21:53:00.324Z,3.70
2023-01-29T21:55:48.781Z,3.40
2023-01-29T21:58:44.531Z,3.50
2023-01-29T22:01:38.762Z,3.50
2023-01-29T22:04:26.768Z,4.20
2023-01-29T22:07:17.209Z,3.50
2023-01-29T22:10:05.551Z,3.60
2023-01-29T22:12:53.109Z,3.50
2023-01-29T22:15:42.981Z,6.10
2023-01-29T22:18:30.743Z,3.70
2023-01-29T22:21:19.477Z,3.70
2023-01-29T22:24:08.493Z,6.40
2023-01-29T22:27:00.915Z,3.70
2023-01-29T22:29:48.617Z,3.70
2023-01-29T22:32:39.682Z,3.70
2023-01-29T22:35:29.860Z,3.00
2023-01-29T22:38:21.923Z,3.40
2023-01-29T22:41:10.576Z,4.40
2023-01-29T22:43:58.377Z,3.80
2023-01-29T22:46:47.072Z,6.00
2023-01-29T22:49:37.152Z,3.80
2023-01-29T22:52:28.084Z,5.80
2023-01-29T22:55:17.658Z,3.90
2023-01-29T22:58:06.408Z,4.60
2023-01-29T23:00:56.141Z,3.70
2023-01-29T23:03:43.720Z,4.20
2023-01-29T23:06:33.347Z,4.00
2023-01-29T23:09:21.840Z,3.90
2023-01-29T23:12:11.405Z,4.00
2023-01-29T23:15:00.697Z,3.90
2023-01-29T23:17:48.670Z,3.90
2023-01-29T23:20:37.060Z,4.00
2023-01-29T23:23:26.392Z,4.40
2023-01-29T23:26:33.129Z,4.10
2023-01-29T23:29:20.552Z,4.20
2023-01-29T23:32:11.283Z,4.00
2023-01-29T23:34:58.981Z,4.10
2023-01-29T23:37:48.503Z,4.00
2023-01-29T23:40:38.567Z,4.00
2023-01-29T23:43:27.910Z,4.40
2023-01-29T23:46:15.407Z,4.00
2023-01-29T23:49:04.007Z,4.00
2023-01-29T23:51:51.756Z,4.10
2023-01-29T23:54:40.074Z,4.20
2023-01-29T23:57:29.527Z,4.30
